createdAt,value
2023-05-21T00:01:19.991Z,1.42
2023-05-21T00:03:52.845Z,1.90
2023-05-21T00:08:58.386Z,1.60
2023-05-21T00:14:04.083Z,1.70
2023-05-21T00:16:38.145Z,1.80
2023-05-21T00:19:11.295Z,2.08
2023-05-21T00:21:45.993Z,1.75
2023-05-21T00:24:18.861Z,1.80
2023-05-21T00:26:51.622Z,1.70
2023-05-21T00:29:24.844Z,1.83
2023-05-21T00:31:59.201Z,1.92
2023-05-21T00:34:31.973Z,1.98
2023-05-21T00:37:05.151Z,2.05
2023-05-21T00:39:37.851Z,2.30
2023-05-21T00:42:10.584Z,2.10
2023-05-21T00:44:43.246Z,1.90
2023-05-21T00:47:18.343Z,2.03
2023-05-21T00:49:53.373Z,2.20
2023-05-21T00:52:27.544Z,2.08
2023-05-21T00:55:00.408Z,2.25
2023-05-21T00:57:33.702Z,1.42
2023-05-21T01:00:10.821Z,1.70
2023-05-21T01:02:45.782Z,1.70
2023-05-21T01:05:18.936Z,1.80
2023-05-21T01:07:52.063Z,1.77
2023-05-21T01:10:26.175Z,2.40
2023-05-21T01:12:59.513Z,1.80
2023-05-21T01:15:32.382Z,1.80
2023-05-21T01:18:07.724Z,1.50
2023-05-21T01:20:42.475Z,2.00
2023-05-21T01:23:17.724Z,1.85
2023-05-21T01:25:50.590Z,1.40
2023-05-21T01:28:23.472Z,2.40
2023-05-21T01:33:37.771Z,2.05
2023-05-21T01:36:16.591Z,1.88
2023-05-21T01:38:58.671Z,1.90
2023-05-21T01:41:35.999Z,2.08
2023-05-21T01:44:10.297Z,2.10
2023-05-21T01:46:43.044Z,2.00
2023-05-21T01:49:18.441Z,1.65
2023-05-21T01:51:51.860Z,2.03
2023-05-21T01:54:25.942Z,2.13
2023-05-21T01:57:01.663Z,2.00
2023-05-21T01:59:34.767Z,2.10
2023-05-21T02:02:07.915Z,1.83
2023-05-21T02:04:41.364Z,2.10
2023-05-21T02:07:14.433Z,1.90
2023-05-21T02:12:24.088Z,2.03
2023-05-21T02:14:57.648Z,1.80
2023-05-21T02:17:34.180Z,2.03
2023-05-21T02:20:11.553Z,1.95
2023-05-21T02:22:46.627Z,2.40
2023-05-21T02:25:20.932Z,1.95
2023-05-21T02:27:54.021Z,1.85
2023-05-21T02:30:26.907Z,1.90
2023-05-21T02:33:01.103Z,2.15
2023-05-21T02:35:34.579Z,1.77
2023-05-21T02:38:09.128Z,2.53
2023-05-21T02:40:43.284Z,1.75
2023-05-21T02:43:17.057Z,2.38
2023-05-21T02:45:51.852Z,2.35
2023-05-21T02:48:25.290Z,2.08
2023-05-21T02:50:58.230Z,1.73
2023-05-21T02:53:31.192Z,1.70
2023-05-21T02:56:05.892Z,2.22
2023-05-21T02:58:38.640Z,2.10
2023-05-21T03:03:44.582Z,1.60
2023-05-21T03:08:50.673Z,2.83
2023-05-21T03:11:24.956Z,2.17
2023-05-21T03:13:57.995Z,2.17
2023-05-21T03:16:34.601Z,2.22
2023-05-21T03:19:07.507Z,2.35
2023-05-21T03:21:41.809Z,2.40
2023-05-21T03:24:15.355Z,2.30
2023-05-21T03:26:50.387Z,2.40
2023-05-21T03:29:23.292Z,2.25
2023-05-21T03:31:56.844Z,1.70
2023-05-21T03:34:30.288Z,1.83
2023-05-21T03:37:03.135Z,2.42
2023-05-21T03:39:37.107Z,2.55
2023-05-21T03:42:14.146Z,1.90
2023-05-21T03:44:52.276Z,2.42
2023-05-21T03:47:49.053Z,2.40
2023-05-21T03:50:22.085Z,2.92
2023-05-21T03:55:27.632Z,2.70
2023-05-21T03:58:01.926Z,2.08
2023-05-21T04:00:37.412Z,2.63
2023-05-21T04:03:12.002Z,2.33
2023-05-21T04:05:45.020Z,2.20
2023-05-21T04:08:18.986Z,2.00
2023-05-21T04:10:51.772Z,1.95
2023-05-21T04:13:25.814Z,2.80
2023-05-21T04:15:58.746Z,2.60
2023-05-21T04:18:34.202Z,2.88
2023-05-21T04:21:07.498Z,2.72
2023-05-21T04:26:20.071Z,2.78
2023-05-21T04:31:28.849Z,3.17
2023-05-21T04:34:01.694Z,2.80
2023-05-21T04:36:36.251Z,2.45
2023-05-21T04:39:09.291Z,2.78
2023-05-21T04:41:42.231Z,2.53
2023-05-21T04:46:52.683Z,2.25
2023-05-21T04:49:34.325Z,2.42
2023-05-21T04:52:08.314Z,2.70
2023-05-21T04:54:41.992Z,2.70
2023-05-21T04:57:15.088Z,2.80
2023-05-21T04:59:49.263Z,2.50
2023-05-21T05:02:22.201Z,2.63
2023-05-21T05:07:27.958Z,2.70
2023-05-21T05:10:00.720Z,2.28
2023-05-21T05:12:33.936Z,2.95
2023-05-21T05:15:09.507Z,2.70
2023-05-21T05:17:43.290Z,2.40
2023-05-21T05:22:48.772Z,2.57
2023-05-21T05:25:21.977Z,2.92
2023-05-21T05:27:54.790Z,3.05
2023-05-21T05:30:29.092Z,2.72
2023-05-21T05:33:08.063Z,3.10
2023-05-21T05:35:41.638Z,3.42
2023-05-21T05:38:14.690Z,2.85
2023-05-21T05:40:48.041Z,2.83
2023-05-21T05:43:21.043Z,2.95
2023-05-21T05:45:57.385Z,3.03
2023-05-21T05:48:30.298Z,3.25
2023-05-21T05:51:04.354Z,3.22
2023-05-21T05:53:37.957Z,2.83
2023-05-21T05:56:11.124Z,2.85
2023-05-21T05:58:44.936Z,2.95
2023-05-21T06:01:22.762Z,3.50
2023-05-21T06:03:57.364Z,3.20
2023-05-21T06:06:30.292Z,3.03
2023-05-21T06:09:04.838Z,3.42
2023-05-21T06:11:37.741Z,3.25
2023-05-21T06:14:12.976Z,3.40
2023-05-21T06:16:47.638Z,3.40
2023-05-21T06:19:21.052Z,2.97
2023-05-21T06:24:26.884Z,3.10
2023-05-21T06:26:59.823Z,3.30
2023-05-21T06:32:09.552Z,4.07
2023-05-21T06:34:42.480Z,3.00
2023-05-21T06:37:15.732Z,3.50
2023-05-21T06:39:48.577Z,2.70
2023-05-21T06:45:23.225Z,3.25
2023-05-21T06:48:00.695Z,3.20
2023-05-21T06:50:33.518Z,3.13
2023-05-21T06:55:39.262Z,2.63
2023-05-21T06:58:31.097Z,3.38
2023-05-21T07:01:04.038Z,3.20
2023-05-21T07:03:38.729Z,3.17
2023-05-21T07:06:11.605Z,3.28
2023-05-21T07:08:44.843Z,3.10
2023-05-21T07:13:50.844Z,2.95
2023-05-21T07:19:00.607Z,3.35
2023-05-21T07:21:35.452Z,3.67
2023-05-21T07:24:08.578Z,3.70
2023-05-21T07:26:46.740Z,3.75
2023-05-21T07:29:19.777Z,3.67
2023-05-21T07:34:28.050Z,3.75
2023-05-21T07:37:00.859Z,3.78
2023-05-21T07:39:37.855Z,3.53
2023-05-21T07:42:11.725Z,3.67
2023-05-21T07:44:44.677Z,3.80
2023-05-21T07:52:25.064Z,4.10
2023-05-21T08:00:10.378Z,4.03
2023-05-21T08:02:47.966Z,4.28
2023-05-21T08:05:24.436Z,4.65
2023-05-21T08:07:57.846Z,4.10
2023-05-21T08:10:30.768Z,3.90
2023-05-21T08:15:36.721Z,4.05
2023-05-21T08:18:10.067Z,4.25
2023-05-21T08:20:44.599Z,3.70
2023-05-21T08:23:18.467Z,3.60
2023-05-21T08:25:56.900Z,4.43
2023-05-21T08:28:31.536Z,3.97
2023-05-21T08:31:05.381Z,3.88
2023-05-21T08:33:40.491Z,3.60
2023-05-21T08:36:14.610Z,4.47
2023-05-21T08:38:55.202Z,3.88
2023-05-21T08:41:36.238Z,4.47
2023-05-21T08:44:13.193Z,3.78
2023-05-21T08:46:50.737Z,4.13
2023-05-21T08:49:27.888Z,4.22
2023-05-21T08:52:04.171Z,4.28
2023-05-21T08:54:37.548Z,3.90
2023-05-21T08:57:11.360Z,3.63
2023-05-21T08:59:45.139Z,3.63
2023-05-21T09:02:27.058Z,3.33
2023-05-21T09:05:03.172Z,4.60
2023-05-21T09:07:43.300Z,3.90
2023-05-21T09:10:39.019Z,4.28
2023-05-21T09:13:12.551Z,3.92
2023-05-21T09:15:45.949Z,4.30
2023-05-21T09:18:22.643Z,4.18
2023-05-21T09:21:27.443Z,3.20
2023-05-21T09:24:24.023Z,4.05
2023-05-21T09:26:58.836Z,4.15
2023-05-21T09:29:32.205Z,3.72
2023-05-21T09:32:07.956Z,3.83
2023-05-21T09:34:44.111Z,4.00
2023-05-21T09:37:27.182Z,4.10
2023-05-21T09:40:04.724Z,4.35
2023-05-21T09:42:37.597Z,4.43
2023-05-21T09:45:12.260Z,4.35
2023-05-21T09:47:46.908Z,3.75
2023-05-21T09:50:21.087Z,3.60
2023-05-21T09:52:55.484Z,3.30
2023-05-21T09:55:29.782Z,4.00
2023-05-21T09:58:04.661Z,3.70
2023-05-21T10:00:37.804Z,4.30
2023-05-21T10:03:12.983Z,4.65
2023-05-21T10:05:45.883Z,3.70
2023-05-21T10:10:54.189Z,4.43
2023-05-21T10:16:21.234Z,3.92
2023-05-21T10:18:55.464Z,4.40
2023-05-21T10:21:28.725Z,4.13
2023-05-21T10:24:04.201Z,3.55
2023-05-21T10:26:39.638Z,3.40
2023-05-21T10:29:13.604Z,3.15
2023-05-21T10:31:49.898Z,3.67
2023-05-21T10:34:24.844Z,3.92
2023-05-21T10:36:59.136Z,3.53
2023-05-21T10:39:33.450Z,3.38
2023-05-21T10:42:19.660Z,3.53
2023-05-21T10:45:09.374Z,3.30
2023-05-21T10:47:58.250Z,3.50
2023-05-21T10:50:54.054Z,3.50
2023-05-21T10:53:38.677Z,3.25
2023-05-21T10:56:19.189Z,2.97
2023-05-21T10:59:15.176Z,3.22
2023-05-21T11:01:49.793Z,3.97
2023-05-21T11:04:33.145Z,3.20
2023-05-21T11:07:06.283Z,3.40
2023-05-21T11:09:42.401Z,2.90
2023-05-21T11:12:17.967Z,3.58
2023-05-21T11:14:58.662Z,3.08
2023-05-21T11:17:38.752Z,3.35
2023-05-21T11:20:15.183Z,3.00
2023-05-21T11:22:48.209Z,3.00
2023-05-21T11:25:21.004Z,3.20
2023-05-21T11:30:30.190Z,3.00
2023-05-21T11:33:21.112Z,2.70
2023-05-21T11:35:59.788Z,3.08
2023-05-21T11:38:34.065Z,2.55
2023-05-21T11:41:06.867Z,3.70
2023-05-21T11:46:15.978Z,3.45
2023-05-21T11:48:53.844Z,3.28
2023-05-21T11:51:31.985Z,2.85
2023-05-21T11:54:05.260Z,2.67
2023-05-21T11:56:52.714Z,2.58
2023-05-21T12:00:26.663Z,2.85
2023-05-21T12:03:05.975Z,2.95
2023-05-21T12:05:58.160Z,2.85
2023-05-21T12:09:19.510Z,2.75
2023-05-21T12:12:20.557Z,2.83
2023-05-21T12:15:54.719Z,2.72
2023-05-21T12:19:05.433Z,2.35
2023-05-21T12:21:43.490Z,3.83
2023-05-21T12:24:16.898Z,4.28
2023-05-21T12:26:50.227Z,3.15
2023-05-21T12:29:23.767Z,3.25
2023-05-21T12:32:00.756Z,3.85
2023-05-21T12:34:46.215Z,3.60
2023-05-21T12:37:22.989Z,3.55
2023-05-21T12:39:57.269Z,2.92
2023-05-21T12:42:31.790Z,4.10
2023-05-21T12:45:08.228Z,2.90
2023-05-21T12:47:41.356Z,3.30
2023-05-21T12:50:15.696Z,3.38
2023-05-21T12:52:48.552Z,3.92
2023-05-21T12:55:26.438Z,3.20
2023-05-21T12:58:09.052Z,4.25
2023-05-21T13:00:42.956Z,3.05
2023-05-21T13:03:16.559Z,2.85
2023-05-21T13:05:59.469Z,4.00
2023-05-21T13:08:39.476Z,3.00
2023-05-21T13:11:12.997Z,3.30
2023-05-21T13:13:45.883Z,3.30
2023-05-21T13:16:22.145Z,3.35
2023-05-21T13:18:55.228Z,3.22
2023-05-21T13:21:29.571Z,2.90
2023-05-21T13:24:02.409Z,3.55
2023-05-21T13:26:35.372Z,2.67
2023-05-21T13:29:08.406Z,3.42
2023-05-21T13:31:41.681Z,3.60
2023-05-21T13:34:14.758Z,3.55
2023-05-21T13:36:48.993Z,3.38
2023-05-21T13:39:26.784Z,3.50
2023-05-21T13:42:02.192Z,3.08
2023-05-21T13:44:36.531Z,2.92
2023-05-21T13:47:10.379Z,3.50
2023-05-21T13:49:43.379Z,3.55
2023-05-21T13:52:19.649Z,3.50
2023-05-21T13:54:52.932Z,2.45
2023-05-21T13:57:26.826Z,2.90
2023-05-21T14:00:01.123Z,3.58
2023-05-21T14:02:34.624Z,2.97
2023-05-21T14:05:07.913Z,3.00
2023-05-21T14:07:42.769Z,3.63
2023-05-21T14:10:17.831Z,3.20
2023-05-21T14:12:51.595Z,3.97
2023-05-21T14:15:32.263Z,3.50
2023-05-21T14:18:07.920Z,3.95
2023-05-21T14:20:41.139Z,3.00
2023-05-21T14:23:20.100Z,3.10
2023-05-21T14:25:53.060Z,2.72
2023-05-21T14:28:26.289Z,3.08
2023-05-21T14:31:01.468Z,3.55
2023-05-21T14:33:34.858Z,2.97
2023-05-21T14:36:07.986Z,3.45
2023-05-21T14:38:42.163Z,2.83
2023-05-21T14:41:15.210Z,3.40
2023-05-21T14:43:48.543Z,3.08
2023-05-21T14:46:21.530Z,3.42
2023-05-21T14:48:55.387Z,3.67
2023-05-21T14:51:28.217Z,3.55
2023-05-21T14:54:02.433Z,3.53
2023-05-21T14:56:35.351Z,3.50
2023-05-21T14:59:08.226Z,3.47
2023-05-21T15:01:41.094Z,3.47
2023-05-21T15:04:14.223Z,4.28
2023-05-21T15:06:47.286Z,3.63
2023-05-21T15:09:21.628Z,3.17
2023-05-21T15:11:54.810Z,3.72
2023-05-21T15:14:27.851Z,3.15
2023-05-21T15:17:00.863Z,3.08
2023-05-21T15:19:33.716Z,3.45
2023-05-21T15:22:06.784Z,3.15
2023-05-21T15:24:41.346Z,3.78
2023-05-21T15:27:14.288Z,2.92
2023-05-21T15:29:47.543Z,3.08
2023-05-21T15:32:21.789Z,2.92
2023-05-21T15:34:55.171Z,3.13
2023-05-21T15:37:28.296Z,3.13
2023-05-21T15:40:02.661Z,2.95
2023-05-21T15:42:35.667Z,2.97
2023-05-21T15:45:09.888Z,2.58
2023-05-21T15:47:43.088Z,3.22
2023-05-21T15:50:16.038Z,3.70
2023-05-21T15:52:50.359Z,3.53
2023-05-21T15:55:26.605Z,3.70
2023-05-21T15:58:01.419Z,3.20
2023-05-21T16:00:35.514Z,3.08
2023-05-21T16:03:09.246Z,3.92
2023-05-21T16:05:42.130Z,3.42
2023-05-21T16:08:15.434Z,3.80
2023-05-21T16:10:49.687Z,3.28
2023-05-21T16:13:22.545Z,2.90
2023-05-21T16:15:55.400Z,3.00
2023-05-21T16:18:28.417Z,3.40
2023-05-21T16:21:01.366Z,3.10
2023-05-21T16:23:34.558Z,3.45
2023-05-21T16:26:10.636Z,2.38
2023-05-21T16:28:43.459Z,2.67
2023-05-21T16:31:16.395Z,2.90
2023-05-21T16:33:49.559Z,3.45
2023-05-21T16:36:22.444Z,3.17
2023-05-21T16:38:55.387Z,3.28
2023-05-21T16:41:32.861Z,3.10
2023-05-21T16:44:05.900Z,3.00
2023-05-21T16:46:39.983Z,3.00
2023-05-21T16:49:13.083Z,3.15
2023-05-21T16:51:46.079Z,3.90
2023-05-21T16:54:18.927Z,3.05
2023-05-21T16:56:54.640Z,2.92
2023-05-21T16:59:30.158Z,3.92
2023-05-21T17:02:03.008Z,3.10
2023-05-21T17:04:36.162Z,2.63
2023-05-21T17:07:09.445Z,3.17
2023-05-21T17:09:42.368Z,2.85
2023-05-21T17:12:16.725Z,2.90
2023-05-21T17:14:49.592Z,3.33
2023-05-21T17:19:57.153Z,2.85
2023-05-21T17:22:30.193Z,3.00
2023-05-21T17:25:03.108Z,3.97
2023-05-21T17:27:37.706Z,3.17
2023-05-21T17:30:11.238Z,2.58
2023-05-21T17:32:47.294Z,2.47
2023-05-21T17:35:20.444Z,3.10
2023-05-21T17:37:53.642Z,3.05
2023-05-21T17:40:26.400Z,2.50
2023-05-21T17:43:00.597Z,3.03
2023-05-21T17:45:33.660Z,3.15
2023-05-21T17:48:06.878Z,2.53
2023-05-21T17:50:40.309Z,2.95
2023-05-21T17:53:13.910Z,2.70
2023-05-21T17:55:46.818Z,2.60
2023-05-21T17:58:21.118Z,3.50
2023-05-21T18:00:54.071Z,2.67
2023-05-21T18:03:27.000Z,3.00
2023-05-21T18:08:32.519Z,3.42
2023-05-21T18:11:05.488Z,3.75
2023-05-21T18:13:39.680Z,3.45
2023-05-21T18:16:13.173Z,3.05
2023-05-21T18:18:46.216Z,3.50
2023-05-21T18:21:21.912Z,3.65
2023-05-21T18:23:55.116Z,2.97
2023-05-21T18:26:30.145Z,3.53
2023-05-21T18:29:04.751Z,3.60
2023-05-21T18:31:37.721Z,3.22
2023-05-21T18:34:11.052Z,3.10
2023-05-21T18:36:46.855Z,3.10
2023-05-21T18:39:24.469Z,3.35
2023-05-21T18:44:34.682Z,3.28
2023-05-21T18:47:08.213Z,2.75
2023-05-21T18:49:41.082Z,3.30
2023-05-21T18:54:46.614Z,4.13
2023-05-21T18:57:19.509Z,2.78
2023-05-21T19:02:27.154Z,3.60
2023-05-21T19:05:01.745Z,3.25
2023-05-21T19:07:35.024Z,3.95
2023-05-21T19:10:09.119Z,3.33
2023-05-21T19:12:42.878Z,3.20
2023-05-21T19:15:17.192Z,3.72
2023-05-21T19:17:50.185Z,4.88
2023-05-21T19:20:25.028Z,3.50
2023-05-21T19:22:58.029Z,3.00
2023-05-21T19:25:31.528Z,4.07
2023-05-21T19:28:04.400Z,4.70
2023-05-21T19:33:12.196Z,4.55
2023-05-21T19:35:45.402Z,4.40
2023-05-21T19:38:18.470Z,3.60
2023-05-21T19:40:51.370Z,5.25
2023-05-21T19:45:58.353Z,9.68
2023-05-21T19:48:31.208Z,9.52
2023-05-21T19:51:05.240Z,7.20
2023-05-21T19:53:38.142Z,6.45
2023-05-21T19:58:47.269Z,4.57
2023-05-21T20:01:21.848Z,4.22
2023-05-21T20:03:55.174Z,5.32
2023-05-21T20:06:28.128Z,4.82
2023-05-21T20:09:01.000Z,4.13
2023-05-21T20:14:06.880Z,4.03
2023-05-21T20:16:42.296Z,4.07
2023-05-21T20:19:15.811Z,4.80
2023-05-21T20:21:48.856Z,6.13
2023-05-21T20:26:54.988Z,5.70
2023-05-21T20:29:28.861Z,4.22
2023-05-21T20:32:03.248Z,3.85
2023-05-21T20:34:40.498Z,3.83
2023-05-21T20:37:17.409Z,3.75
2023-05-21T20:39:53.877Z,4.00
2023-05-21T20:42:28.586Z,3.38
2023-05-21T20:45:01.797Z,3.10
2023-05-21T20:47:38.382Z,3.58
2023-05-21T20:50:13.202Z,3.40
2023-05-21T20:52:47.400Z,2.92
2023-05-21T20:55:20.894Z,3.40
2023-05-21T20:57:54.291Z,3.05
2023-05-21T21:00:27.153Z,3.75
2023-05-21T21:05:35.100Z,4.78
2023-05-21T21:10:42.685Z,2.90
2023-05-21T21:13:15.757Z,2.75
2023-05-21T21:15:48.568Z,3.20
2023-05-21T21:20:56.041Z,3.75
2023-05-21T21:23:29.974Z,4.07
2023-05-21T21:26:02.830Z,2.88
2023-05-21T21:28:35.658Z,3.50
2023-05-21T21:33:42.858Z,3.37
2023-05-21T21:36:16.093Z,3.58
2023-05-21T21:38:48.869Z,3.03
2023-05-21T21:41:22.013Z,3.85
2023-05-21T21:43:54.919Z,3.42
2023-05-21T21:46:27.771Z,3.60
2023-05-21T21:51:37.047Z,3.45
2023-05-21T21:54:09.904Z,3.30
2023-05-21T21:56:42.877Z,3.20
2023-05-21T22:01:49.340Z,3.88
2023-05-21T22:04:23.718Z,2.80
2023-05-21T22:06:56.989Z,4.07
2023-05-21T22:09:29.923Z,3.05
2023-05-21T22:14:40.588Z,3.75
2023-05-21T22:17:14.187Z,3.95
2023-05-21T22:19:48.834Z,2.78
2023-05-21T22:22:21.749Z,3.92
2023-05-21T22:24:54.920Z,4.20
2023-05-21T22:27:27.775Z,3.55
2023-05-21T22:32:33.879Z,3.63
2023-05-21T22:35:09.694Z,3.28
2023-05-21T22:37:42.505Z,3.20
2023-05-21T22:40:15.386Z,3.17
2023-05-21T22:42:48.165Z,4.63
2023-05-21T22:45:21.850Z,4.30
2023-05-21T22:47:56.668Z,3.40
2023-05-21T22:50:32.955Z,3.95
2023-05-21T22:53:05.922Z,4.00
2023-05-21T22:58:11.582Z,3.43
2023-05-21T23:03:17.588Z,3.33
2023-05-21T23:05:51.842Z,3.90
2023-05-21T23:08:24.757Z,3.65
2023-05-21T23:13:31.351Z,3.27
2023-05-21T23:16:04.477Z,3.33
2023-05-21T23:18:37.473Z,3.10
2023-05-21T23:23:44.506Z,4.22
2023-05-21T23:28:50.263Z,5.00
2023-05-21T23:31:23.315Z,3.42
2023-05-21T23:33:56.954Z,3.88
2023-05-21T23:36:31.413Z,3.47
2023-05-21T23:39:04.787Z,3.90
2023-05-21T23:41:38.722Z,3.92
2023-05-21T23:44:12.622Z,3.65
2023-05-21T23:46:45.405Z,4.00
2023-05-21T23:49:18.268Z,4.30
2023-05-21T23:54:25.129Z,3.42
2023-05-21T23:56:58.206Z,3.92
2023-05-21T23:59:31.138Z,3.60
